Time;durP1;ratioP1;P1;durP2;ratioP2;P2;SDS_P1;SDS_P2;PMS_P1;PMS_P2;Temp;Humidity;BMP_temperature;BMP_pressure;BME280_temperature;BME280_humidity;BME280_pressure;Samples;Min_cycle;Max_cycle;Signal;HPM_P1;HPM_P2
2024/01/05 00:01:31;;;;;;;15.90;4.07;;;;;;;7.60;100.00;99819.56;5034873;28;20029;-91
2024/01/05 00:03:57;;;;;;;18.48;3.90;;;;;;;7.58;100.00;99822.19;5034192;28;20127;-91
2024/01/05 00:06:23;;;;;;;15.32;3.80;;;;;;;7.61;100.00;99829.22;5016944;28;20037;-91
2024/01/05 00:08:48;;;;;;;20.80;4.50;;;;;;;7.62;100.00;99815.19;4999773;28;20049;-91
2024/01/05 00:11:18;;;;;;;13.55;3.55;;;;;;;7.64;100.00;99816.09;5000300;28;20112;-90
2024/01/05 00:13:43;;;;;;;19.70;3.60;;;;;;;7.60;100.00;99806.44;5016273;28;20028;-92
2024/01/05 00:16:17;;;;;;;12.23;3.50;;;;;;;7.63;100.00;99809.97;5034156;28;20021;-92
2024/01/05 00:18:42;;;;;;;15.65;3.75;;;;;;;7.53;100.00;99810.75;5034138;28;20029;-92
2024/01/05 00:21:07;;;;;;;11.38;3.35;;;;;;;7.63;100.00;99814.34;5034082;28;20059;-93
2024/01/05 00:23:33;;;;;;;19.10;4.13;;;;;;;7.59;100.00;99808.19;4999783;28;20108;-92
2024/01/05 00:26:03;;;;;;;14.30;3.50;;;;;;;7.64;100.00;99810.84;5033861;28;20029;-91
2024/01/05 00:28:28;;;;;;;19.75;4.65;;;;;;;7.70;100.00;99817.00;5033837;28;20027;-92
2024/01/05 00:30:54;;;;;;;10.50;3.22;;;;;;;7.71;100.00;99803.00;5033757;28;20104;-92
2024/01/05 00:33:20;;;;;;;14.98;3.60;;;;;;;7.64;100.00;99787.16;5016197;28;20030;-93
2024/01/05 00:35:45;;;;;;;16.35;3.70;;;;;;;7.62;100.00;99781.88;5015684;28;20040;-93
2024/01/05 00:38:11;;;;;;;14.32;3.47;;;;;;;7.78;100.00;99804.75;5016148;28;20108;-94
2024/01/05 00:40:36;;;;;;;17.67;3.50;;;;;;;7.80;100.00;99790.78;4983610;28;20385;-94
2024/01/05 00:43:02;;;;;;;16.80;3.38;;;;;;;7.58;100.00;99752.94;4999789;28;20045;-93
2024/01/05 00:45:27;;;;;;;18.42;3.60;;;;;;;7.82;100.00;99776.72;5016186;28;20057;-92
2024/01/05 00:47:52;;;;;;;17.48;3.33;;;;;;;7.78;100.00;99769.69;5015965;28;20449;-93
2024/01/05 00:50:18;;;;;;;16.50;3.65;;;;;;;7.82;100.00;99773.22;5015770;28;20033;-93
2024/01/05 00:52:43;;;;;;;13.27;3.25;;;;;;;7.81;100.00;99767.09;5015762;28;20031;-93
2024/01/05 00:55:09;;;;;;;12.57;3.50;;;;;;;7.88;100.00;99776.78;4999551;28;20466;-93
2024/01/05 00:57:34;;;;;;;15.07;3.40;;;;;;;7.82;100.00;99762.72;5033387;28;20112;-93
2024/01/05 01:00:00;;;;;;;13.93;3.08;;;;;;;7.80;100.00;99757.47;5033670;28;20098;-93
2024/01/05 01:02:25;;;;;;;17.25;3.28;;;;;;;7.86;100.00;99761.84;5033238;28;20040;-92
2024/01/05 01:04:50;;;;;;;12.38;3.35;;;;;;;7.91;100.00;99771.50;4999243;28;20033;-92
2024/01/05 01:07:16;;;;;;;12.75;3.30;;;;;;;7.89;100.00;99757.50;5032449;28;20044;-93
2024/01/05 01:09:41;;;;;;;19.10;3.10;;;;;;;7.94;100.00;99766.28;5015027;28;20045;-91
2024/01/05 01:12:06;;;;;;;15.25;3.30;;;;;;;7.87;100.00;99743.44;4999168;28;20547;-93
2024/01/05 01:14:32;;;;;;;16.67;3.40;;;;;;;7.92;100.00;99752.25;5033193;28;20033;-94
2024/01/05 01:16:57;;;;;;;11.38;3.25;;;;;;;7.97;100.00;99754.91;5015515;28;20034;-93
2024/01/05 01:19:22;;;;;;;13.15;3.30;;;;;;;7.92;100.00;99752.25;5015820;28;20136;-94
2024/01/05 01:21:49;;;;;;;12.40;3.25;;;;;;;7.93;100.00;99746.13;5033095;28;20450;-92
2024/01/05 01:24:14;;;;;;;12.95;2.90;;;;;;;7.89;100.00;99743.47;5033097;28;20037;-93
2024/01/05 01:26:39;;;;;;;12.30;3.70;;;;;;;8.01;100.00;99754.03;5015322;28;20072;-93
2024/01/05 01:29:07;;;;;;;12.90;3.35;;;;;;;7.95;100.00;99733.81;5015473;28;20522;-94
2024/01/05 01:31:33;;;;;;;14.73;3.17;;;;;;;8.02;100.00;99746.13;5033016;28;20057;-93
2024/01/05 01:33:58;;;;;;;11.30;2.88;;;;;;;8.00;100.00;99737.34;5015194;28;20055;-93
2024/01/05 01:36:23;;;;;;;14.35;2.95;;;;;;;7.91;100.00;99713.66;5015409;28;20033;-93
2024/01/05 01:38:49;;;;;;;11.95;3.08;;;;;;;7.98;100.00;99725.94;5015063;28;20060;-94
2024/01/05 01:41:14;;;;;;;13.02;3.10;;;;;;;8.04;100.00;99730.34;5015533;28;20033;-93
2024/01/05 01:43:46;;;;;;;14.38;3.00;;;;;;;7.95;100.00;99704.03;4998972;28;20053;-94
2024/01/05 01:46:12;;;;;;;9.40;2.75;;;;;;;8.01;100.00;99717.22;5033012;28;20030;-96
2024/01/05 01:48:40;;;;;;;14.50;3.33;;;;;;;8.08;100.00;99728.59;5032618;28;20397;-95
2024/01/05 01:51:06;;;;;;;15.95;3.45;;;;;;;8.06;100.00;99715.47;5015532;28;20080;-95
2024/01/05 01:53:32;;;;;;;14.88;3.05;;;;;;;7.92;100.00;99688.22;5032879;28;20370;-94
2024/01/05 01:55:57;;;;;;;15.65;3.53;;;;;;;7.85;100.00;99668.06;4998890;28;20025;-93
2024/01/05 01:58:24;;;;;;;11.50;3.00;;;;;;;8.05;100.00;99703.19;5015211;28;20034;-94
2024/01/05 02:00:51;;;;;;;13.40;3.20;;;;;;;8.10;100.00;99705.81;5014966;28;20470;-93
2024/01/05 02:03:17;;;;;;;12.02;2.65;;;;;;;7.99;100.00;99695.25;5032709;28;20037;-91
2024/01/05 02:05:44;;;;;;;10.35;2.58;;;;;;;8.04;100.00;99688.25;5032672;28;20120;-93
2024/01/05 02:08:11;;;;;;;11.80;2.78;;;;;;;8.05;100.00;99679.50;5032197;28;20077;-94
2024/01/05 02:10:37;;;;;;;13.25;3.28;;;;;;;8.07;100.00;99685.63;5032907;28;20034;-94
2024/01/05 02:13:03;;;;;;;11.82;3.05;;;;;;;8.07;100.00;99685.63;5032415;28;20342;-95
2024/01/05 02:15:28;;;;;;;11.18;2.92;;;;;;;7.94;100.00;99662.81;4998690;28;20040;-94
2024/01/05 02:17:54;;;;;;;11.77;3.17;;;;;;;8.04;100.00;99668.09;5032656;28;20033;-94
2024/01/05 02:20:19;;;;;;;10.25;2.75;;;;;;;7.99;100.00;99654.03;5017531;28;20083;-94
2024/01/05 02:22:50;;;;;;;11.18;3.15;;;;;;;7.87;100.00;99632.09;5036379;28;20041;-94
2024/01/05 02:25:16;;;;;;;9.18;2.75;;;;;;;7.86;100.00;99644.38;5036400;28;20033;-94
2024/01/05 02:27:41;;;;;;;6.60;2.42;;;;;;;7.96;100.00;99659.28;5036177;28;20026;-93
2024/01/05 02:30:07;;;;;;;11.93;3.30;;;;;;;7.76;100.00;99625.09;5036519;28;20075;-94
2024/01/05 02:32:32;;;;;;;13.02;2.60;;;;;;;7.78;100.00;99625.94;5035925;28;20116;-94
2024/01/05 02:34:57;;;;;;;11.25;2.50;;;;;;;7.90;100.00;99645.28;5036136;28;20060;-95
2024/01/05 02:37:23;;;;;;;6.85;2.40;;;;;;;7.74;100.00;99615.41;5018372;28;20033;-95
2024/01/05 02:39:48;;;;;;;9.35;2.63;;;;;;;7.82;100.00;99641.75;5035824;28;20080;-94
2024/01/05 02:42:14;;;;;;;11.20;2.60;;;;;;;7.80;100.00;99641.75;5036048;28;20083;-94
2024/01/05 02:44:42;;;;;;;11.48;2.92;;;;;;;7.70;100.00;99621.53;5035713;28;20076;-94
2024/01/05 02:47:10;;;;;;;9.48;2.58;;;;;;;7.74;100.00;99620.69;5001977;28;20029;-94
2024/01/05 02:49:35;;;;;;;9.43;2.70;;;;;;;7.71;100.00;99616.31;5001638;28;20025;-95
2024/01/05 02:52:01;;;;;;;8.05;2.53;;;;;;;7.62;100.00;99597.84;5018217;28;20423;-95
2024/01/05 02:54:27;;;;;;;7.97;2.60;;;;;;;7.73;100.00;99621.56;5018363;28;20028;-94
2024/01/05 02:56:52;;;;;;;8.95;2.40;;;;;;;7.73;100.00;99609.28;5018367;28;20370;-92
2024/01/05 02:59:18;;;;;;;9.23;2.40;;;;;;;7.60;100.00;99583.84;5037782;28;20052;-92
2024/01/05 03:01:47;;;;;;;10.25;2.50;;;;;;;7.66;100.00;99593.50;5018348;28;20179;-93
2024/01/05 03:04:13;;;;;;;9.35;2.70;;;;;;;7.71;100.00;99595.28;5035467;28;20029;-93
2024/01/05 03:06:38;;;;;;;11.35;3.00;;;;;;;7.66;100.00;99580.34;5036146;28;20347;-94
2024/01/05 03:09:05;;;;;;;10.07;2.65;;;;;;;7.73;100.00;99592.63;5014983;28;20049;-95
2024/01/05 03:11:31;;;;;;;8.95;2.60;;;;;;;7.75;100.00;99588.25;5016396;28;20030;-94
2024/01/05 03:13:56;;;;;;;8.40;2.30;;;;;;;7.80;100.00;99594.41;5015374;28;20366;-92
2024/01/05 03:16:21;;;;;;;10.60;2.80;;;;;;;7.80;100.00;99583.91;5015465;28;20065;-94
2024/01/05 03:18:47;;;;;;;13.45;2.70;;;;;;;7.84;100.00;99590.91;4999358;28;20057;-95
2024/01/05 03:21:12;;;;;;;8.65;2.55;;;;;;;7.84;100.00;99590.91;5016374;28;20025;-93
2024/01/05 03:23:37;;;;;;;7.47;2.45;;;;;;;7.80;100.00;99586.53;5018446;28;20463;-92
2024/01/05 03:26:07;;;;;;;10.45;2.67;;;;;;;7.78;100.00;99567.22;5015188;28;20415;-93
2024/01/05 03:28:32;;;;;;;7.78;2.47;;;;;;;7.65;100.00;99547.03;5014706;28;20034;-93
2024/01/05 03:30:57;;;;;;;9.98;2.40;;;;;;;7.69;100.00;99554.06;5014239;28;20533;-93
2024/01/05 03:33:23;;;;;;;8.10;2.30;;;;;;;7.81;100.00;99571.63;5014500;28;20482;-93
2024/01/05 03:35:48;;;;;;;9.05;2.65;;;;;;;7.79;100.00;99566.34;4998394;28;20038;-93
2024/01/05 03:38:14;;;;;;;9.50;2.60;;;;;;;7.81;100.00;99561.09;5015657;28;20026;-94
2024/01/05 03:40:41;;;;;;;8.32;2.50;;;;;;;7.80;100.00;99568.13;5015435;28;20060;-94
2024/01/05 03:43:07;;;;;;;9.50;2.50;;;;;;;7.74;100.00;99544.44;5014488;28;20026;-94
2024/01/05 03:45:32;;;;;;;7.45;2.25;;;;;;;7.80;100.00;99554.09;4998514;28;20378;-92
2024/01/05 03:47:58;;;;;;;8.70;2.45;;;;;;;7.77;100.00;99545.31;5014620;28;20034;-94
2024/01/05 03:50:25;;;;;;;10.65;2.55;;;;;;;7.67;100.00;99530.41;5015870;28;20030;-94
2024/01/05 03:52:51;;;;;;;8.35;2.47;;;;;;;7.77;100.00;99547.06;5014554;28;20036;-94
2024/01/05 03:55:16;;;;;;;9.77;2.20;;;;;;;7.77;100.00;99540.06;5014710;28;20030;-94
2024/01/05 03:57:42;;;;;;;8.30;2.72;;;;;;;7.73;100.00;99516.38;5014639;28;20517;-94
2024/01/05 04:00:07;;;;;;;12.18;2.78;;;;;;;7.75;100.00;99522.50;5014549;28;20029;-93
2024/01/05 04:02:33;;;;;;;10.25;2.55;;;;;;;7.79;100.00;99529.53;5013752;28;20450;-93
2024/01/05 04:04:58;;;;;;;8.77;2.45;;;;;;;7.78;100.00;99522.53;4997102;28;20034;-95
2024/01/05 04:07:23;;;;;;;9.77;2.40;;;;;;;7.76;100.00;99516.41;5014251;28;20463;-95
2024/01/05 04:09:50;;;;;;;10.73;2.90;;;;;;;7.64;100.00;99505.88;5033226;28;20041;-94
2024/01/05 04:12:17;;;;;;;8.15;2.20;;;;;;;7.68;100.00;99511.13;5017155;28;20079;-95
2024/01/05 04:14:44;;;;;;;8.10;2.35;;;;;;;7.69;100.00;99501.47;5034449;28;20033;-96
2024/01/05 04:17:12;;;;;;;10.25;2.33;;;;;;;7.58;100.00;99487.44;5000257;28;20358;-95
2024/01/05 04:19:37;;;;;;;13.32;2.50;;;;;;;7.70;100.00;99492.72;5001102;28;20373;-94
2024/01/05 04:22:05;;;;;;;11.35;2.53;;;;;;;7.60;100.00;99473.44;5034178;28;20116;-95
2024/01/05 04:24:31;;;;;;;6.28;2.20;;;;;;;7.61;100.00;99472.56;5033843;28;20385;-95
2024/01/05 04:26:56;;;;;;;7.90;2.47;;;;;;;7.45;100.00;99448.03;5034509;28;20084;-95
2024/01/05 04:29:21;;;;;;;10.70;2.63;;;;;;;7.49;100.00;99451.50;5016902;28;20453;-96
2024/01/05 04:31:47;;;;;;;9.85;2.28;;;;;;;7.57;100.00;99469.91;5034323;28;20120;-95
2024/01/05 04:34:12;;;;;;;7.50;2.20;;;;;;;7.65;100.00;99478.69;5034355;28;20466;-95
2024/01/05 04:36:38;;;;;;;11.75;2.65;;;;;;;7.35;100.00;99422.59;5000765;28;20029;-94
2024/01/05 04:39:04;;;;;;;9.57;2.42;;;;;;;7.60;100.00;99462.03;5016479;28;20453;-95
2024/01/05 04:41:30;;;;;;;8.75;2.35;;;;;;;7.50;100.00;99445.41;5016800;28;20462;-95
2024/01/05 04:43:55;;;;;;;9.80;1.90;;;;;;;7.54;100.00;99449.78;5015516;28;20040;-94
2024/01/05 04:46:21;;;;;;;10.77;2.50;;;;;;;7.63;100.00;99455.03;5034423;28;20041;-95
2024/01/05 04:48:46;;;;;;;6.40;2.20;;;;;;;7.59;100.00;99452.41;5016989;28;20029;-96
2024/01/05 04:51:11;;;;;;;9.98;2.13;;;;;;;7.62;100.00;99444.50;4983978;28;20404;-95
2024/01/05 04:53:37;;;;;;;7.38;2.00;;;;;;;7.58;100.00;99437.50;5016108;28;20461;-95
2024/01/05 04:56:03;;;;;;;9.75;2.50;;;;;;;7.61;100.00;99446.25;5033793;28;20037;-96
2024/01/05 04:58:28;;;;;;;10.35;2.42;;;;;;;7.56;100.00;99423.50;5000004;28;20033;-95
2024/01/05 05:00:54;;;;;;;6.45;2.05;;;;;;;7.60;100.00;99430.50;5034334;28;20029;-95
2024/01/05 05:03:19;;;;;;;12.32;2.45;;;;;;;7.61;100.00;99438.38;5000208;28;20369;-95
2024/01/05 05:05:45;;;;;;;6.50;2.10;;;;;;;7.51;100.00;99421.75;5016664;28;20029;-96
2024/01/05 05:08:13;;;;;;;6.13;2.00;;;;;;;7.46;100.00;99401.59;5000413;28;20115;-96
2024/01/05 05:10:38;;;;;;;9.82;2.25;;;;;;;7.49;100.00;99406.84;5034521;28;20021;-95
2024/01/05 05:13:04;;;;;;;7.13;2.20;;;;;;;7.64;100.00;99420.00;5034589;28;20033;-94
2024/01/05 05:15:29;;;;;;;9.82;2.30;;;;;;;7.50;100.00;99385.81;5034877;28;20462;-96
2024/01/05 05:17:55;;;;;;;11.13;2.33;;;;;;;7.64;100.00;99419.13;5035293;28;20446;-96
2024/01/05 05:20:20;;;;;;;8.65;2.90;;;;;;;7.62;100.00;99434.00;5033604;28;20070;-93
2024/01/05 05:22:46;;;;;;;7.03;1.90;;;;;;;7.62;100.00;99420.84;4983285;28;20029;-95
2024/01/05 05:25:11;;;;;;;8.25;2.20;;;;;;;7.65;100.00;99419.09;5033391;28;20056;-96
2024/01/05 05:27:36;;;;;;;8.80;2.00;;;;;;;7.64;100.00;99408.59;5033068;28;20113;-94
2024/01/05 05:30:05;;;;;;;9.82;2.60;;;;;;;7.78;100.00;99422.59;5033409;28;20029;-95
2024/01/05 05:32:30;;;;;;;7.53;2.17;;;;;;;7.62;100.00;99384.91;5015623;28;20033;-95
2024/01/05 05:34:58;;;;;;;7.72;2.33;;;;;;;7.82;100.00;99419.09;5033212;28;20033;-96
2024/01/05 05:37:23;;;;;;;6.88;1.90;;;;;;;7.82;100.00;99411.19;5016494;28;20457;-96
2024/01/05 05:39:49;;;;;;;9.05;2.25;;;;;;;7.91;100.00;99413.81;5016619;28;20055;-96
2024/01/05 05:42:14;;;;;;;5.25;1.90;;;;;;;7.78;100.00;99396.31;4999684;28;20354;-94
2024/01/05 05:44:39;;;;;;;7.70;1.85;;;;;;;7.80;100.00;99412.97;5033582;28;20029;-96
2024/01/05 05:47:05;;;;;;;5.25;1.90;;;;;;;7.97;100.00;99410.31;5034027;28;20030;-96
2024/01/05 05:49:30;;;;;;;6.80;2.08;;;;;;;7.95;100.00;99423.44;5034067;28;20489;-94
2024/01/05 05:51:56;;;;;;;6.32;2.05;;;;;;;8.00;100.00;99434.84;5015744;28;20025;-95
2024/01/05 05:54:21;;;;;;;4.60;1.73;;;;;;;7.92;100.00;99409.44;5017184;28;20044;-94
2024/01/05 05:56:49;;;;;;;8.50;2.20;;;;;;;8.06;100.00;99412.06;5003554;28;20033;-94
2024/01/05 05:59:17;;;;;;;6.97;2.00;;;;;;;7.99;100.00;99409.41;5020186;28;20107;-94
2024/01/05 06:01:44;;;;;;;8.82;1.95;;;;;;;7.96;100.00;99403.28;5020642;28;20033;-95
2024/01/05 06:04:09;;;;;;;6.43;1.70;;;;;;;8.06;100.00;99427.84;5004077;28;20040;-95
2024/01/05 06:06:35;;;;;;;5.88;1.65;;;;;;;8.06;100.00;99412.94;5037723;28;20026;-96
2024/01/05 06:09:00;;;;;;;5.15;1.60;;;;;;;7.93;100.00;99396.28;5019571;28;20056;-94
2024/01/05 06:11:26;;;;;;;5.45;1.42;;;;;;;8.05;100.00;99426.97;5019846;28;20017;-96
2024/01/05 06:13:52;;;;;;;2.70;1.25;;;;;;;8.12;95.78;99433.06;5020021;28;20025;-95
2024/01/05 06:16:18;;;;;;;3.25;1.40;;;;;;;8.15;93.72;99459.38;5037187;28;20520;-94
2024/01/05 06:18:44;;;;;;;2.88;1.10;;;;;;;8.06;94.24;99419.94;5003143;28;20378;-95
2024/01/05 06:21:09;;;;;;;1.48;1.05;;;;;;;8.14;92.62;99431.34;5019798;28;20033;-95
2024/01/05 06:23:35;;;;;;;1.40;1.08;;;;;;;7.97;93.32;99416.44;5022816;28;20442;-96
2024/01/05 06:26:01;;;;;;;2.30;1.00;;;;;;;8.09;90.94;99438.34;5020011;28;20103;-96
2024/01/05 06:28:29;;;;;;;2.47;1.30;;;;;;;8.02;91.39;99427.84;5003734;28;20037;-94
2024/01/05 06:30:54;;;;;;;1.42;1.10;;;;;;;7.87;91.87;99414.69;5020002;28;20029;-96
2024/01/05 06:33:20;;;;;;;2.83;1.10;;;;;;;7.98;92.15;99433.97;5019648;28;20381;-96
2024/01/05 06:35:45;;;;;;;1.45;1.05;;;;;;;8.01;91.39;99446.25;5019467;28;20048;-96
2024/01/05 06:38:11;;;;;;;2.33;1.23;;;;;;;7.99;91.41;99421.69;5036741;28;20366;-96
2024/01/05 06:40:36;;;;;;;1.98;1.00;;;;;;;7.89;91.16;99407.69;5002783;28;20037;-95
2024/01/05 06:43:01;;;;;;;2.60;1.10;;;;;;;7.98;90.21;99423.47;5019185;28;20445;-95
2024/01/05 06:45:27;;;;;;;2.10;1.15;;;;;;;7.92;91.63;99430.47;5002911;28;20426;-94
2024/01/05 06:47:53;;;;;;;1.50;0.90;;;;;;;7.88;90.86;99416.47;5036356;28;20040;-94
2024/01/05 06:50:18;;;;;;;0.93;0.90;;;;;;;7.96;90.73;99424.31;5018511;28;20029;-95
2024/01/05 06:52:44;;;;;;;2.78;1.10;;;;;;;8.01;92.76;99441.00;5001992;28;20030;-95
2024/01/05 06:55:09;;;;;;;2.33;1.20;;;;;;;7.96;93.19;99437.47;5018667;28;20121;-95
2024/01/05 06:57:38;;;;;;;2.45;1.23;;;;;;;7.97;92.89;99448.00;5036025;28;20029;-93
2024/01/05 07:00:09;;;;;;;1.33;1.00;;;;;;;7.87;92.68;99419.09;5036077;28;20378;-93
2024/01/05 07:02:35;;;;;;;2.70;1.13;;;;;;;7.96;93.07;99442.72;5002630;28;20358;-94
2024/01/05 07:05:01;;;;;;;2.35;1.05;;;;;;;7.89;94.21;99430.50;5018018;28;20030;-94
2024/01/05 07:07:26;;;;;;;2.10;0.82;;;;;;;7.87;94.30;99432.22;5017081;28;20041;-94
2024/01/05 07:09:52;;;;;;;1.50;1.10;;;;;;;7.88;93.12;99440.13;5002137;28;20060;-95
2024/01/05 07:12:20;;;;;;;1.50;1.10;;;;;;;7.68;94.07;99399.84;5018018;28;20029;-92
2024/01/05 07:14:47;;;;;;;1.92;1.05;;;;;;;7.84;93.49;99425.25;5035888;28;20030;-94
2024/01/05 07:17:12;;;;;;;1.27;1.08;;;;;;;7.85;91.88;99426.97;5035810;28;20469;-96
2024/01/05 07:19:39;;;;;;;0.73;0.73;;;;;;;7.86;92.25;99464.66;5001874;28;20021;-92
2024/01/05 07:22:04;;;;;;;0.88;0.80;;;;;;;7.89;92.83;99434.00;5017947;28;20470;-95
2024/01/05 07:24:30;;;;;;;0.80;0.80;;;;;;;7.86;91.16;99428.72;5035636;28;20067;-95
2024/01/05 07:26:57;;;;;;;1.77;0.88;;;;;;;7.85;91.49;99431.38;5035596;28;20367;-94
2024/01/05 07:29:23;;;;;;;2.88;1.00;;;;;;;7.84;91.91;99438.38;5017918;28;20494;-94
2024/01/05 07:31:48;;;;;;;1.20;0.90;;;;;;;7.71;92.54;99411.22;5035745;28;20030;-93
2024/01/05 07:34:14;;;;;;;2.08;0.95;;;;;;;7.65;93.42;99413.84;5035786;28;20030;-95
2024/01/05 07:36:42;;;;;;;3.63;1.00;;;;;;;7.68;94.03;99413.84;5018296;28;20451;-95
2024/01/05 07:39:11;;;;;;;1.23;0.85;;;;;;;7.68;93.36;99441.91;5017777;28;20068;-94
2024/01/05 07:41:38;;;;;;;1.30;1.08;;;;;;;7.47;95.21;99405.97;5035266;28;20087;-95
2024/01/05 07:44:03;;;;;;;1.52;1.20;;;;;;;7.64;96.92;99446.28;5036129;28;20041;-95
2024/01/05 07:46:30;;;;;;;2.00;1.25;;;;;;;7.62;97.15;99426.97;5018237;28;20025;-93
2024/01/05 07:48:56;;;;;;;1.10;1.00;;;;;;;7.57;98.16;99468.16;5035730;28;20178;-94
2024/01/05 07:51:21;;;;;;;2.13;1.20;;;;;;;7.47;99.48;99448.91;5035305;28;20160;-95
2024/01/05 07:53:48;;;;;;;2.05;1.10;;;;;;;7.47;100.00;99442.75;5034866;28;20057;-94
2024/01/05 07:56:17;;;;;;;1.52;1.08;;;;;;;7.45;100.00;99461.16;5017132;28;20029;-95
2024/01/05 07:58:45;;;;;;;1.50;1.00;;;;;;;7.34;100.00;99441.00;5035155;28;20033;-95
2024/01/05 08:01:18;;;;;;;1.50;1.17;;;;;;;7.34;100.00;99454.13;5034169;28;20037;-95
2024/01/05 08:03:44;;;;;;;;;;;;;;;7.30;100.00;99450.63;5035230;28;20475;-96
2024/01/05 08:06:17;;;;;;;1.48;0.80;;;;;;;7.13;100.00;99454.97;5034841;28;19905;-96
2024/01/05 08:08:50;;;;;;;3.00;1.20;;;;;;;7.09;100.00;99440.09;5017027;28;20057;-95
2024/01/05 08:11:16;;;;;;;0.98;0.98;;;;;;;6.73;100.00;99391.88;5034814;28;20462;-95
2024/01/05 08:13:43;;;;;;;1.55;1.13;;;;;;;6.96;100.00;99447.94;5037126;28;20030;-94
2024/01/05 08:16:09;;;;;;;1.52;1.20;;;;;;;6.87;100.00;99426.91;5018935;28;20373;-94
2024/01/05 08:18:35;;;;;;;3.92;1.40;;;;;;;6.86;100.00;99433.03;5034403;28;20029;-94
2024/01/05 08:21:02;;;;;;;1.58;1.20;;;;;;;6.87;100.00;99431.28;5016648;28;20553;-94
2024/01/05 08:23:28;;;;;;;1.48;1.30;;;;;;;6.73;100.00;99424.25;5017249;28;20033;-95
2024/01/05 08:25:53;;;;;;;2.42;1.30;;;;;;;6.75;100.00;99425.09;5035666;28;20025;-94
2024/01/05 08:28:19;;;;;;;3.20;1.23;;;;;;;6.85;100.00;99447.03;5034734;28;20059;-92
2024/01/05 08:30:44;;;;;;;2.67;1.10;;;;;;;6.77;100.00;99428.63;5001205;28;20030;-96
2024/01/05 08:33:13;;;;;;;2.97;1.02;;;;;;;6.71;100.00;99440.84;5017642;28;20040;-93
2024/01/05 08:35:39;;;;;;;3.67;1.13;;;;;;;6.80;100.00;99453.13;5016465;28;20045;-96
2024/01/05 08:38:07;;;;;;;1.65;1.27;;;;;;;6.73;100.00;99429.50;5016865;28;20033;-93
2024/01/05 08:40:33;;;;;;;1.77;1.00;;;;;;;6.76;100.00;99458.34;5033750;28;20458;-93
2024/01/05 08:42:59;;;;;;;1.13;1.02;;;;;;;6.66;100.00;99437.34;5019024;28;20087;-96
2024/01/05 08:45:27;;;;;;;1.38;1.17;;;;;;;6.44;100.00;99421.50;5072297;22;20107;-95
2024/01/05 08:47:56;;;;;;;0.93;0.77;;;;;;;6.71;100.00;99456.59;5016254;28;20026;-94
2024/01/05 08:50:21;;;;;;;3.88;1.10;;;;;;;6.67;100.00;99481.06;5019421;28;20037;-96
2024/01/05 08:52:48;;;;;;;1.98;1.20;;;;;;;6.61;100.00;99465.31;5017938;28;20029;-95
2024/01/05 08:55:15;;;;;;;1.50;1.20;;;;;;;6.56;100.00;99457.41;4999736;28;20377;-91
2024/01/05 08:57:40;;;;;;;0.80;0.80;;;;;;;6.62;100.00;99488.06;5037220;28;20029;-91
2024/01/05 09:00:09;;;;;;;1.88;0.85;;;;;;;6.54;100.00;99488.00;5016653;28;20472;-90
2024/01/05 09:02:38;;;;;;;1.13;1.00;;;;;;;6.44;100.00;99473.09;5005406;28;20025;-92
2024/01/05 09:05:04;;;;;;;1.95;0.93;;;;;;;6.34;100.00;99480.06;5033347;28;20442;-94
2024/01/05 09:07:33;;;;;;;3.28;0.90;;;;;;;6.20;100.00;99471.19;5015855;28;20216;-89
2024/01/05 09:09:59;;;;;;;1.75;1.02;;;;;;;6.13;100.00;99466.81;5018513;28;20025;-93
2024/01/05 09:12:25;;;;;;;0.77;0.77;;;;;;;6.19;100.00;99499.19;5035138;28;20059;-94
2024/01/05 09:14:51;;;;;;;1.58;0.75;;;;;;;6.10;100.00;99493.88;5017984;28;20028;-92
2024/01/05 09:17:16;;;;;;;1.48;1.02;;;;;;;5.90;100.00;99466.59;4985863;28;20155;-90
2024/01/05 09:19:42;;;;;;;1.23;1.08;;;;;;;5.82;100.00;99463.91;5017247;28;20037;-93
2024/01/05 09:22:08;;;;;;;2.40;1.20;;;;;;;5.93;100.00;99485.88;5015818;28;20033;-92
2024/01/05 09:24:33;;;;;;;3.60;1.15;;;;;;;5.94;100.00;99495.50;5017916;28;20064;-90
2024/01/05 09:26:59;;;;;;;2.03;1.25;;;;;;;5.92;100.00;99497.25;5034050;28;20029;-92
2024/01/05 09:29:26;;;;;;;1.45;1.20;;;;;;;5.88;100.00;99513.78;5015013;28;20411;-94
2024/01/05 09:31:51;;;;;;;1.23;1.02;;;;;;;5.86;100.00;99475.31;4997885;28;20123;-94
2024/01/05 09:34:17;;;;;;;1.48;1.23;;;;;;;5.67;100.00;99467.31;5014708;28;20033;-92
2024/01/05 09:36:43;;;;;;;1.88;1.48;;;;;;;5.81;100.00;99491.00;5000161;28;20573;-95
2024/01/05 09:39:11;;;;;;;2.35;1.25;;;;;;;5.80;100.00;99497.09;5015268;28;20157;-92
2024/01/05 09:41:37;;;;;;;3.08;1.50;;;;;;;5.72;100.00;99485.69;5033550;28;20025;-95
2024/01/05 09:44:03;;;;;;;2.33;1.80;;;;;;;5.85;100.00;99507.63;5018726;28;20064;-96
2024/01/05 09:46:28;;;;;;;3.05;1.40;;;;;;;5.79;100.00;99492.75;5033009;28;20038;-90
2024/01/05 09:48:58;;;;;;;2.97;1.80;;;;;;;5.78;100.00;99480.47;5033959;28;20071;-89
2024/01/05 09:51:30;;;;;;;1.92;1.38;;;;;;;5.91;100.00;99499.81;4998944;28;20030;-92
2024/01/05 09:53:55;;;;;;;1.83;1.50;;;;;;;5.71;100.00;99470.84;5012979;28;20068;-93
2024/01/05 09:56:22;;;;;;;2.58;1.60;;;;;;;5.91;100.00;99505.03;4979952;28;20059;-92
2024/01/05 09:58:50;;;;;;;13.77;1.88;;;;;;;5.96;100.00;99516.50;4979375;28;20037;-92
2024/01/05 10:01:25;;;;;;;4.15;1.77;;;;;;;5.91;100.00;99487.59;4979095;28;20118;-91
2024/01/05 10:03:54;;;;;;;4.53;2.00;;;;;;;5.93;100.00;99498.13;4995682;28;20022;-91
2024/01/05 10:06:20;;;;;;;5.05;1.85;;;;;;;5.93;100.00;99501.63;5013016;28;20116;-92
2024/01/05 10:08:45;;;;;;;5.93;1.70;;;;;;;5.91;100.00;99484.06;4995584;28;20097;-91
2024/01/05 10:11:11;;;;;;;3.53;2.03;;;;;;;5.96;100.00;99492.91;4979122;28;20037;-91
2024/01/05 10:13:37;;;;;;;2.30;1.80;;;;;;;6.02;100.00;99500.81;4995084;28;20029;-92
2024/01/05 10:16:05;;;;;;;3.17;1.70;;;;;;;6.03;100.00;99495.56;4995259;28;20034;-91
2024/01/05 10:18:30;;;;;;;5.05;1.88;;;;;;;6.04;100.00;99488.59;4996591;28;20128;-92
2024/01/05 10:21:07;;;;;;;1.98;1.70;;;;;;;6.18;100.00;99480.81;4979344;28;20133;-93
2024/01/05 10:23:41;;;;;;;4.53;2.00;;;;;;;6.32;100.00;99510.63;4995825;28;20489;-92
2024/01/05 10:26:17;;;;;;;1.85;1.63;;;;;;;6.38;100.00;99497.56;5012816;28;20030;-91
2024/01/05 10:28:42;;;;;;;2.08;1.70;;;;;;;6.45;100.00;99491.47;4995163;28;20037;-92
2024/01/05 10:31:13;;;;;;;2.50;1.67;;;;;;;6.50;100.00;99504.59;4995031;28;20034;-93
2024/01/05 10:33:52;;;;;;;3.22;1.98;;;;;;;6.56;100.00;99506.41;4997751;28;20026;-91
2024/01/05 10:36:25;;;;;;;4.53;2.00;;;;;;;6.62;100.00;99512.56;5012455;28;20489;-92
2024/01/05 10:38:51;;;;;;;4.28;1.85;;;;;;;6.63;100.00;99493.31;4995070;28;20037;-92
2024/01/05 10:41:18;;;;;;;4.63;1.85;;;;;;;6.48;100.00;99469.63;4995765;28;20029;-92
2024/01/05 10:43:44;;;;;;;2.50;1.65;;;;;;;6.68;100.00;99494.22;4998379;28;20045;-91
2024/01/05 10:46:11;;;;;;;1.77;1.60;;;;;;;6.61;100.00;99497.69;5023351;28;20053;-90
2024/01/05 10:48:39;;;;;;;2.17;1.70;;;;;;;6.58;100.00;99489.78;5000086;28;20025;-91
2024/01/05 10:51:09;;;;;;;2.80;1.70;;;;;;;6.65;100.00;99522.19;4998668;28;20026;-92
2024/01/05 10:53:38;;;;;;;1.92;1.50;;;;;;;6.62;100.00;99501.19;5016943;28;20131;-92
2024/01/05 10:56:06;;;;;;;3.22;1.83;;;;;;;6.58;100.00;99505.53;5016562;28;20033;-92
2024/01/05 10:58:32;;;;;;;3.05;1.90;;;;;;;6.56;100.00;99509.03;4998497;28;20025;-93
2024/01/05 11:01:01;;;;;;;2.05;1.55;;;;;;;6.63;100.00;99514.28;4982042;28;20065;-92
2024/01/05 11:03:36;;;;;;;3.72;2.15;;;;;;;6.61;100.00;99512.56;4998213;28;20033;-91
2024/01/05 11:06:10;;;;;;;2.25;1.70;;;;;;;6.62;100.00;99511.69;4998528;28;20471;-93
2024/01/05 11:08:54;;;;;;;3.72;1.92;;;;;;;6.64;100.00;99516.06;4997977;28;20072;-93
2024/01/05 11:11:53;;;;;;;3.42;1.77;;;;;;;6.66;100.00;99530.06;5016041;28;20125;-92
2024/01/05 11:14:41;;;;;;;4.43;1.80;;;;;;;6.59;100.00;99506.41;4998012;28;21012;-92
2024/01/05 11:17:44;;;;;;;2.67;1.75;;;;;;;6.66;100.00;99522.19;5015473;28;20025;-92
2024/01/05 11:20:37;;;;;;;2.30;1.70;;;;;;;6.64;100.00;99521.31;5020714;28;20370;-92
2024/01/05 11:23:08;;;;;;;2.17;1.67;;;;;;;6.64;100.00;99544.06;4998889;28;20782;-91
2024/01/05 11:25:34;;;;;;;3.80;1.90;;;;;;;6.58;100.00;99510.78;4983109;28;20018;-92
2024/01/05 11:27:59;;;;;;;2.85;1.75;;;;;;;6.66;100.00;99524.81;4997787;28;20026;-92
2024/01/05 11:30:41;;;;;;;2.53;1.80;;;;;;;6.62;100.00;99515.19;5015287;28;20510;-92